createdAt,value
2017-10-31T00:02:22.003Z,2.20
2017-10-31T00:04:50.238Z,1.77
2017-10-31T00:07:17.711Z,2.10
2017-10-31T00:09:45.181Z,1.67
2017-10-31T00:12:12.631Z,1.40
2017-10-31T00:14:40.190Z,2.10
2017-10-31T00:17:07.653Z,1.70
2017-10-31T00:19:35.120Z,1.40
2017-10-31T00:22:03.385Z,1.70
2017-10-31T00:24:31.859Z,1.37
2017-10-31T00:26:59.319Z,1.57
2017-10-31T00:29:26.784Z,2.00
2017-10-31T00:31:54.249Z,1.60
2017-10-31T00:34:22.471Z,2.03
2017-10-31T00:36:49.923Z,1.73
2017-10-31T00:39:17.390Z,2.00
2017-10-31T00:41:44.839Z,1.80
2017-10-31T00:44:12.336Z,1.80
2017-10-31T00:46:39.795Z,1.40
2017-10-31T00:49:07.404Z,1.40
2017-10-31T00:51:34.864Z,2.03
2017-10-31T00:54:02.364Z,2.10
2017-10-31T00:56:29.827Z,1.23
2017-10-31T00:58:57.292Z,1.73
2017-10-31T01:01:25.521Z,1.53
2017-10-31T01:03:53.028Z,1.57
2017-10-31T01:06:21.258Z,1.57
2017-10-31T01:08:48.725Z,1.73
2017-10-31T01:11:16.183Z,2.03
2017-10-31T01:13:43.639Z,1.50
2017-10-31T01:16:11.103Z,1.33
2017-10-31T01:18:38.556Z,1.90
2017-10-31T01:21:06.943Z,1.90
2017-10-31T01:23:34.412Z,1.70
2017-10-31T01:26:02.650Z,1.77
2017-10-31T01:28:30.107Z,2.17
2017-10-31T01:30:57.588Z,1.90
2017-10-31T01:33:25.368Z,1.57
2017-10-31T01:35:52.912Z,0.93
2017-10-31T01:38:20.380Z,1.30
2017-10-31T01:40:47.832Z,1.10
2017-10-31T01:43:15.279Z,1.30
2017-10-31T01:45:42.748Z,1.40
2017-10-31T01:48:10.216Z,1.17
2017-10-31T01:50:38.430Z,0.80
2017-10-31T01:53:05.929Z,1.33
2017-10-31T01:55:33.378Z,1.23
2017-10-31T01:58:00.843Z,1.60
2017-10-31T02:00:29.079Z,1.23
2017-10-31T02:02:56.572Z,2.50
2017-10-31T02:05:24.139Z,1.30
2017-10-31T02:07:51.598Z,1.63
2017-10-31T02:10:19.055Z,1.70
2017-10-31T02:12:47.285Z,1.57
2017-10-31T02:15:14.755Z,1.50
2017-10-31T02:17:42.236Z,1.67
2017-10-31T02:20:10.291Z,1.70
2017-10-31T02:22:37.767Z,1.40
2017-10-31T02:25:05.232Z,1.70
2017-10-31T02:27:33.446Z,1.70
2017-10-31T02:30:00.933Z,1.97
2017-10-31T02:32:28.404Z,1.60
2017-10-31T02:34:55.971Z,1.53
2017-10-31T02:37:23.524Z,1.67
2017-10-31T02:39:50.994Z,1.90
2017-10-31T02:42:18.440Z,1.77
2017-10-31T02:44:45.898Z,1.80
2017-10-31T02:47:13.354Z,1.60
2017-10-31T02:49:40.817Z,1.90
2017-10-31T02:52:09.047Z,1.60
2017-10-31T02:54:37.491Z,1.27
2017-10-31T02:57:05.943Z,2.20
2017-10-31T02:59:33.411Z,2.00
2017-10-31T03:02:01.672Z,1.40
2017-10-31T03:04:29.126Z,2.93
2017-10-31T03:06:56.597Z,1.43
2017-10-31T03:09:24.139Z,1.10
2017-10-31T03:11:51.701Z,1.43
2017-10-31T03:14:19.829Z,2.00
2017-10-31T03:16:47.277Z,2.07
2017-10-31T03:19:14.722Z,1.47
2017-10-31T03:21:43.253Z,1.40
2017-10-31T03:24:10.707Z,2.13
2017-10-31T03:26:38.189Z,1.30
2017-10-31T03:29:05.658Z,1.07
2017-10-31T03:31:33.879Z,1.87
2017-10-31T03:34:01.373Z,1.30
2017-10-31T03:36:28.822Z,1.40
2017-10-31T03:38:56.284Z,1.60
2017-10-31T03:41:23.747Z,1.60
2017-10-31T03:43:51.207Z,1.40
2017-10-31T03:46:18.756Z,1.63
2017-10-31T03:48:46.220Z,0.97
2017-10-31T03:51:13.666Z,1.00
2017-10-31T03:53:41.228Z,1.37
2017-10-31T03:56:08.691Z,1.10
2017-10-31T03:58:36.152Z,1.70
2017-10-31T04:01:03.600Z,1.40
2017-10-31T04:03:31.065Z,1.33
2017-10-31T04:05:59.332Z,1.67
2017-10-31T04:08:26.792Z,1.70
2017-10-31T04:10:55.787Z,1.30
2017-10-31T04:13:23.330Z,1.20
2017-10-31T04:15:50.786Z,1.10
2017-10-31T04:18:19.017Z,1.40
2017-10-31T04:20:46.472Z,1.43
2017-10-31T04:23:13.929Z,1.63
2017-10-31T04:25:41.403Z,1.30
2017-10-31T04:28:08.892Z,2.00
2017-10-31T04:30:36.353Z,1.37
2017-10-31T04:33:03.819Z,1.63
2017-10-31T04:35:31.267Z,1.50
2017-10-31T04:37:58.723Z,1.73
2017-10-31T04:40:26.184Z,2.27
2017-10-31T04:42:53.641Z,1.30
2017-10-31T04:45:21.096Z,2.70
2017-10-31T04:47:48.648Z,2.10
2017-10-31T04:50:16.107Z,2.00
2017-10-31T04:52:43.565Z,2.13
2017-10-31T04:55:11.031Z,1.77
2017-10-31T04:57:39.336Z,2.80
2017-10-31T05:00:06.787Z,1.83
2017-10-31T05:02:34.283Z,2.23
2017-10-31T05:05:01.736Z,2.07
2017-10-31T05:07:29.192Z,2.03
2017-10-31T05:09:56.667Z,2.07
2017-10-31T05:12:24.127Z,1.70
2017-10-31T05:14:51.603Z,1.80
2017-10-31T05:17:19.854Z,2.10
2017-10-31T05:19:47.327Z,1.97
2017-10-31T05:22:14.915Z,2.03
2017-10-31T05:24:42.696Z,2.40
2017-10-31T05:27:10.142Z,2.37
2017-10-31T05:29:37.671Z,2.13
2017-10-31T05:32:05.902Z,2.03
2017-10-31T05:34:33.360Z,1.87
2017-10-31T05:37:00.860Z,1.80
2017-10-31T05:39:28.327Z,2.50
2017-10-31T05:41:56.584Z,2.20
2017-10-31T05:44:24.040Z,1.80
2017-10-31T05:46:51.595Z,2.00
2017-10-31T05:49:19.060Z,2.50
2017-10-31T05:51:47.386Z,2.50
2017-10-31T05:54:14.881Z,2.60
2017-10-31T05:56:42.344Z,2.10
2017-10-31T05:59:09.808Z,2.10
2017-10-31T06:01:37.270Z,2.10
2017-10-31T06:04:04.722Z,2.90
2017-10-31T06:06:32.177Z,2.33
2017-10-31T06:08:59.787Z,2.57
2017-10-31T06:11:27.235Z,2.73
2017-10-31T06:13:54.688Z,2.33
2017-10-31T06:16:22.917Z,2.33
2017-10-31T06:18:50.376Z,2.40
2017-10-31T06:21:18.598Z,2.40
2017-10-31T06:23:51.823Z,3.53
2017-10-31T06:26:25.010Z,2.10
2017-10-31T06:28:58.075Z,2.37
2017-10-31T06:31:31.261Z,2.00
2017-10-31T06:33:58.738Z,3.40
2017-10-31T06:36:26.212Z,2.50
2017-10-31T06:38:53.671Z,2.87
2017-10-31T06:41:21.143Z,2.57
2017-10-31T06:43:48.606Z,2.10
2017-10-31T06:46:16.063Z,2.67
2017-10-31T06:48:43.605Z,2.60
2017-10-31T06:51:11.136Z,2.37
2017-10-31T06:53:38.619Z,2.97
2017-10-31T06:56:06.191Z,2.27
2017-10-31T06:58:33.742Z,2.00
2017-10-31T07:01:01.209Z,2.73
2017-10-31T07:03:28.683Z,3.13
2017-10-31T07:05:56.899Z,3.43
2017-10-31T07:08:24.360Z,2.63
2017-10-31T07:10:51.828Z,2.87
2017-10-31T07:13:19.362Z,3.90
2017-10-31T07:15:46.818Z,3.80
2017-10-31T07:18:14.317Z,3.00
2017-10-31T07:20:41.771Z,3.17
2017-10-31T07:23:09.236Z,3.43
2017-10-31T07:25:36.791Z,2.87
2017-10-31T07:28:04.250Z,3.13
2017-10-31T07:30:31.808Z,3.80
2017-10-31T07:32:59.271Z,3.90
2017-10-31T07:35:26.727Z,3.43
2017-10-31T07:37:54.975Z,2.97
2017-10-31T07:40:23.220Z,3.17
2017-10-31T07:42:50.695Z,3.30
2017-10-31T07:45:18.156Z,4.53
2017-10-31T07:47:45.692Z,3.80
2017-10-31T07:50:13.195Z,4.10
2017-10-31T07:52:40.763Z,3.40
2017-10-31T07:55:08.999Z,3.87
2017-10-31T07:57:36.464Z,4.10
2017-10-31T08:00:03.916Z,4.20
2017-10-31T08:02:31.386Z,3.20
2017-10-31T08:04:58.840Z,4.20
2017-10-31T08:07:26.333Z,4.47
2017-10-31T08:09:54.616Z,4.03
2017-10-31T08:12:22.873Z,4.90
2017-10-31T08:14:50.335Z,3.40
2017-10-31T08:17:18.580Z,4.17
2017-10-31T08:19:46.045Z,4.63
2017-10-31T08:22:14.314Z,4.77
2017-10-31T08:24:41.893Z,4.90
2017-10-31T08:27:10.141Z,4.83
2017-10-31T08:29:37.720Z,5.00
2017-10-31T08:32:05.291Z,4.70
2017-10-31T08:34:32.756Z,4.07
2017-10-31T08:37:01.018Z,5.83
2017-10-31T08:39:28.499Z,4.80
2017-10-31T08:41:56.739Z,4.97
2017-10-31T08:44:24.211Z,5.43
2017-10-31T08:46:51.699Z,4.20
2017-10-31T08:49:19.184Z,4.47
2017-10-31T08:51:46.659Z,4.83
2017-10-31T08:54:14.245Z,4.77
2017-10-31T08:56:42.482Z,4.10
2017-10-31T08:59:09.963Z,4.70
2017-10-31T09:01:37.439Z,4.67
2017-10-31T09:04:05.691Z,4.40
2017-10-31T09:06:33.155Z,4.60
2017-10-31T09:09:00.629Z,3.80
2017-10-31T09:11:28.867Z,3.80
2017-10-31T09:13:56.332Z,4.53
2017-10-31T09:16:23.814Z,4.23
2017-10-31T09:18:52.052Z,4.90
2017-10-31T09:21:19.524Z,4.20
2017-10-31T09:23:47.000Z,5.07
2017-10-31T09:26:15.223Z,4.00
2017-10-31T09:28:42.704Z,4.73
2017-10-31T09:31:10.164Z,4.63
2017-10-31T09:33:37.642Z,4.00
2017-10-31T09:36:05.107Z,4.23
2017-10-31T09:38:33.336Z,4.50
2017-10-31T09:41:00.811Z,3.87
2017-10-31T09:43:28.284Z,4.40
2017-10-31T09:45:55.752Z,4.17
2017-10-31T09:48:23.971Z,4.13
2017-10-31T09:50:51.447Z,4.97
2017-10-31T09:53:19.676Z,4.47
2017-10-31T09:55:47.163Z,4.57
2017-10-31T09:58:14.644Z,4.30
2017-10-31T10:00:42.100Z,3.30
2017-10-31T10:03:09.569Z,4.33
2017-10-31T10:05:37.060Z,4.83
2017-10-31T10:08:04.516Z,4.30
2017-10-31T10:10:31.963Z,4.87
2017-10-31T10:13:00.210Z,4.13
2017-10-31T10:15:27.672Z,4.20
2017-10-31T10:17:55.131Z,4.20
2017-10-31T10:20:22.608Z,5.23
2017-10-31T10:22:50.871Z,4.60
2017-10-31T10:25:19.090Z,4.40
2017-10-31T10:27:46.623Z,5.00
2017-10-31T10:30:14.087Z,4.93
2017-10-31T10:32:41.540Z,4.90
2017-10-31T10:35:09.014Z,5.10
2017-10-31T10:37:36.488Z,4.93
2017-10-31T10:40:03.952Z,5.00
2017-10-31T10:42:31.436Z,4.83
2017-10-31T10:44:58.909Z,5.00
2017-10-31T10:47:27.148Z,4.50
2017-10-31T10:49:54.627Z,5.23
2017-10-31T10:52:22.106Z,4.50
2017-10-31T10:54:49.578Z,4.47
2017-10-31T10:57:17.156Z,3.97
2017-10-31T10:59:44.611Z,5.17
2017-10-31T11:02:12.084Z,4.57
2017-10-31T11:04:39.548Z,4.80
2017-10-31T11:07:07.002Z,4.40
2017-10-31T11:09:34.498Z,4.33
2017-10-31T11:12:02.753Z,5.77
2017-10-31T11:14:30.209Z,4.90
2017-10-31T11:16:57.684Z,5.50
2017-10-31T11:19:25.923Z,5.73
2017-10-31T11:21:53.379Z,5.10
2017-10-31T11:24:20.852Z,4.63
2017-10-31T11:26:48.341Z,5.90
2017-10-31T11:29:16.567Z,4.50
2017-10-31T11:31:44.046Z,5.00
2017-10-31T11:34:11.515Z,5.23
2017-10-31T11:36:39.748Z,5.33
2017-10-31T11:39:07.215Z,4.40
2017-10-31T11:41:34.699Z,4.70
2017-10-31T11:44:03.715Z,5.47
2017-10-31T11:46:31.180Z,5.60
2017-10-31T11:48:58.653Z,4.60
2017-10-31T11:51:26.112Z,5.30
2017-10-31T11:53:53.584Z,4.90
2017-10-31T11:56:21.086Z,4.53
2017-10-31T11:58:49.316Z,4.87
2017-10-31T12:01:16.775Z,4.70
2017-10-31T12:03:44.689Z,4.90
2017-10-31T12:06:12.920Z,4.63
2017-10-31T12:08:40.385Z,6.03
2017-10-31T12:11:07.861Z,5.57
2017-10-31T12:13:36.108Z,6.77
2017-10-31T12:16:03.587Z,4.77
2017-10-31T12:18:31.066Z,5.20
2017-10-31T12:20:59.301Z,5.57
2017-10-31T12:23:26.769Z,5.30
2017-10-31T12:25:54.241Z,5.27
2017-10-31T12:28:22.464Z,5.33
2017-10-31T12:30:49.976Z,5.80
2017-10-31T12:33:17.428Z,5.60
2017-10-31T12:35:45.663Z,4.97
2017-10-31T12:38:13.160Z,4.63
2017-10-31T12:40:40.619Z,4.83
2017-10-31T12:43:08.866Z,4.70
2017-10-31T12:45:36.334Z,5.13
2017-10-31T12:48:03.800Z,5.00
2017-10-31T12:50:31.271Z,4.83
2017-10-31T12:52:59.500Z,4.53
2017-10-31T12:55:26.984Z,6.00
2017-10-31T12:57:54.463Z,5.07
2017-10-31T13:00:22.699Z,4.73
2017-10-31T13:02:50.159Z,5.40
2017-10-31T13:05:17.644Z,5.47
2017-10-31T13:07:45.882Z,6.33
2017-10-31T13:10:13.359Z,4.97
2017-10-31T13:12:40.817Z,4.87
2017-10-31T13:15:08.272Z,4.47
2017-10-31T13:17:35.744Z,4.83
2017-10-31T13:20:03.991Z,4.57
2017-10-31T13:22:32.355Z,4.33
2017-10-31T13:24:59.819Z,5.13
2017-10-31T13:27:27.543Z,4.93
2017-10-31T13:29:55.216Z,4.50
2017-10-31T13:32:23.020Z,4.70
2017-10-31T13:34:50.723Z,5.03
2017-10-31T13:37:18.513Z,5.80
2017-10-31T13:39:46.263Z,3.87
2017-10-31T13:42:14.068Z,4.50
2017-10-31T13:44:41.722Z,4.80
2017-10-31T13:47:09.461Z,3.77
2017-10-31T13:49:37.054Z,4.40
2017-10-31T13:52:04.790Z,4.00
2017-10-31T13:54:32.312Z,5.00
2017-10-31T13:57:00.688Z,4.13
2017-10-31T13:59:28.986Z,5.30
2017-10-31T14:01:56.678Z,5.10
2017-10-31T14:04:24.460Z,4.80
2017-10-31T14:06:52.294Z,5.90
2017-10-31T14:09:20.390Z,6.33
2017-10-31T14:11:49.182Z,4.50
2017-10-31T14:14:16.727Z,5.17
2017-10-31T14:16:44.292Z,5.53
2017-10-31T14:19:11.929Z,5.13
2017-10-31T14:21:39.483Z,4.50
2017-10-31T14:24:07.034Z,6.73
2017-10-31T14:26:35.216Z,5.30
2017-10-31T14:29:02.769Z,5.00
2017-10-31T14:31:30.332Z,5.17
2017-10-31T14:33:57.946Z,5.30
2017-10-31T14:36:25.523Z,5.13
2017-10-31T14:38:53.814Z,4.90
2017-10-31T14:41:21.364Z,4.80
2017-10-31T14:43:49.672Z,5.30
2017-10-31T14:46:17.211Z,5.07
2017-10-31T14:48:44.817Z,4.80
2017-10-31T14:51:12.359Z,5.10
2017-10-31T14:53:39.915Z,4.53
2017-10-31T14:56:07.556Z,4.73
2017-10-31T14:58:35.137Z,4.80
2017-10-31T15:01:02.677Z,5.53
2017-10-31T15:03:30.216Z,5.07
2017-10-31T15:05:57.808Z,5.10
2017-10-31T15:08:25.361Z,5.53
2017-10-31T15:10:52.904Z,6.00
2017-10-31T15:13:20.765Z,6.03
2017-10-31T15:15:48.347Z,5.07
2017-10-31T15:18:15.931Z,5.97
2017-10-31T15:20:43.497Z,5.70
2017-10-31T15:23:11.051Z,4.97
2017-10-31T15:25:38.600Z,5.47
2017-10-31T15:28:06.176Z,4.53
2017-10-31T15:30:33.754Z,6.13
2017-10-31T15:33:02.082Z,5.00
2017-10-31T15:35:29.647Z,6.33
2017-10-31T15:37:57.207Z,5.07
2017-10-31T15:40:24.794Z,5.93
2017-10-31T15:42:52.388Z,5.10
2017-10-31T15:45:19.941Z,6.77
2017-10-31T15:47:47.487Z,6.03
2017-10-31T15:50:15.830Z,5.80
2017-10-31T15:52:43.389Z,5.40
2017-10-31T15:55:10.951Z,4.97
2017-10-31T15:57:38.541Z,5.37
2017-10-31T16:00:06.851Z,5.73
2017-10-31T16:02:34.401Z,5.80
2017-10-31T16:05:02.677Z,5.37
2017-10-31T16:07:30.575Z,5.27
2017-10-31T16:09:58.114Z,5.40
2017-10-31T16:12:25.673Z,5.60
2017-10-31T16:14:53.210Z,5.53
2017-10-31T16:17:21.519Z,6.03
2017-10-31T16:19:49.090Z,5.77
2017-10-31T16:22:16.651Z,6.20
2017-10-31T16:24:44.243Z,6.93
2017-10-31T16:27:12.567Z,6.33
2017-10-31T16:29:40.149Z,6.70
2017-10-31T16:32:07.696Z,6.57
2017-10-31T16:34:35.251Z,6.20
2017-10-31T16:37:02.815Z,5.40
2017-10-31T16:39:30.360Z,6.20
2017-10-31T16:41:57.942Z,6.37
2017-10-31T16:44:25.479Z,5.50
2017-10-31T16:46:53.038Z,5.40
2017-10-31T16:49:20.615Z,7.33
2017-10-31T16:51:48.186Z,6.80
2017-10-31T16:54:15.755Z,6.47
2017-10-31T16:56:43.347Z,6.90
2017-10-31T16:59:11.653Z,6.50
2017-10-31T17:01:39.230Z,7.47
2017-10-31T17:04:06.806Z,7.37
2017-10-31T17:06:34.342Z,6.70
2017-10-31T17:09:01.875Z,5.83
2017-10-31T17:11:29.454Z,7.13
2017-10-31T17:13:57.012Z,7.77
2017-10-31T17:16:24.574Z,7.40
2017-10-31T17:18:52.163Z,6.90
2017-10-31T17:21:19.722Z,5.77
2017-10-31T17:23:47.281Z,7.00
2017-10-31T17:26:14.857Z,7.63
2017-10-31T17:28:43.168Z,8.53
2017-10-31T17:31:10.761Z,6.20
2017-10-31T17:33:38.319Z,6.60
2017-10-31T17:36:05.874Z,7.33
2017-10-31T17:38:33.439Z,6.70
2017-10-31T17:41:01.012Z,6.73
2017-10-31T17:43:28.583Z,7.63
2017-10-31T17:45:56.905Z,7.10
2017-10-31T17:48:24.479Z,7.50
2017-10-31T17:50:52.045Z,8.77
2017-10-31T17:53:19.598Z,7.10
2017-10-31T17:55:47.187Z,7.30
2017-10-31T17:58:14.771Z,7.40
2017-10-31T18:00:43.087Z,7.37
2017-10-31T18:03:10.794Z,6.70
2017-10-31T18:05:38.362Z,8.03
2017-10-31T18:08:05.929Z,6.83
2017-10-31T18:10:34.341Z,6.93
2017-10-31T18:13:02.503Z,7.33
2017-10-31T18:15:30.084Z,8.37
2017-10-31T18:17:57.675Z,7.40
2017-10-31T18:20:25.379Z,7.40
2017-10-31T18:22:52.948Z,9.27
2017-10-31T18:25:20.513Z,8.13
2017-10-31T18:27:48.100Z,8.60
2017-10-31T18:30:16.460Z,7.33
2017-10-31T18:32:44.026Z,7.20
2017-10-31T18:35:11.591Z,9.37
2017-10-31T18:37:39.136Z,10.07
2017-10-31T18:40:06.692Z,7.73
2017-10-31T18:42:34.260Z,8.17
2017-10-31T18:45:01.856Z,8.30
2017-10-31T18:47:30.194Z,8.13
2017-10-31T18:49:57.788Z,9.17
2017-10-31T18:52:25.442Z,7.90
2017-10-31T18:54:53.009Z,9.23
2017-10-31T18:57:20.650Z,9.20
2017-10-31T18:59:48.199Z,8.67
2017-10-31T19:02:15.765Z,8.57
2017-10-31T19:07:17.168Z,8.17
2017-10-31T19:09:45.501Z,9.37
2017-10-31T19:12:13.052Z,9.87
2017-10-31T19:14:40.643Z,9.03
2017-10-31T19:17:08.208Z,8.30
2017-10-31T19:19:36.466Z,8.50
2017-10-31T19:22:04.831Z,10.83
2017-10-31T19:24:32.420Z,10.83
2017-10-31T19:26:59.976Z,9.90
2017-10-31T19:29:27.551Z,10.10
2017-10-31T19:31:56.483Z,8.30
2017-10-31T19:34:24.071Z,9.33
2017-10-31T19:36:51.668Z,10.70
2017-10-31T19:39:19.994Z,8.40
2017-10-31T19:41:47.547Z,9.20
2017-10-31T19:44:15.129Z,10.27
2017-10-31T19:46:42.695Z,10.60
2017-10-31T19:49:10.240Z,10.47
2017-10-31T19:51:37.791Z,10.87
2017-10-31T19:54:05.350Z,10.27
2017-10-31T19:56:32.915Z,10.23
2017-10-31T19:59:00.510Z,12.33
2017-10-31T20:01:28.835Z,10.43
2017-10-31T20:03:56.388Z,10.30
2017-10-31T20:06:23.986Z,9.50
2017-10-31T20:08:51.531Z,11.20
2017-10-31T20:11:19.093Z,10.27
2017-10-31T20:13:48.430Z,11.60
2017-10-31T20:16:16.744Z,11.37
2017-10-31T20:18:44.305Z,11.13
2017-10-31T20:21:11.880Z,9.80
2017-10-31T20:23:39.440Z,10.00
2017-10-31T20:26:07.035Z,10.50
2017-10-31T20:28:35.367Z,10.00
2017-10-31T20:31:02.911Z,10.40
2017-10-31T20:33:30.500Z,9.67
2017-10-31T20:35:58.055Z,8.60
2017-10-31T20:38:25.624Z,9.77
2017-10-31T20:40:53.179Z,9.03
2017-10-31T20:43:20.840Z,10.03
2017-10-31T20:45:49.928Z,8.10
2017-10-31T20:48:17.494Z,10.40
2017-10-31T20:50:45.077Z,8.90
2017-10-31T20:53:13.443Z,12.03
2017-10-31T20:58:09.395Z,10.27
2017-10-31T21:00:37.756Z,10.10
2017-10-31T21:03:05.335Z,10.90
2017-10-31T21:05:33.716Z,9.03
2017-10-31T21:08:02.389Z,9.90
2017-10-31T21:10:30.720Z,9.53
2017-10-31T21:12:58.289Z,9.27
2017-10-31T21:15:25.898Z,9.73
2017-10-31T21:17:54.277Z,9.53
2017-10-31T21:20:22.584Z,10.33
2017-10-31T21:22:50.169Z,11.57
2017-10-31T21:25:18.511Z,10.27
2017-10-31T21:27:46.908Z,9.43
2017-10-31T21:30:14.504Z,8.63
2017-10-31T21:32:42.139Z,9.80
2017-10-31T21:35:10.712Z,10.63
2017-10-31T21:37:38.308Z,10.07
2017-10-31T21:40:06.632Z,8.90
2017-10-31T21:42:34.226Z,9.90
2017-10-31T21:45:01.784Z,8.97
2017-10-31T21:47:29.339Z,9.27
2017-10-31T21:49:56.926Z,8.40
2017-10-31T21:52:24.507Z,10.47
2017-10-31T21:54:52.075Z,8.60
2017-10-31T21:57:19.635Z,9.73
2017-10-31T21:59:47.228Z,11.47
2017-10-31T22:02:14.803Z,9.37
2017-10-31T22:04:42.379Z,9.70
2017-10-31T22:07:09.938Z,10.17
2017-10-31T22:09:37.487Z,10.13
2017-10-31T22:12:05.662Z,8.97
2017-10-31T22:14:33.198Z,9.40
2017-10-31T22:17:00.786Z,8.80
2017-10-31T22:19:28.368Z,9.00
2017-10-31T22:21:56.762Z,10.63
2017-10-31T22:24:24.902Z,8.90
2017-10-31T22:26:53.127Z,8.37
2017-10-31T22:29:20.695Z,9.13
2017-10-31T22:31:48.258Z,8.30
2017-10-31T22:34:15.856Z,9.53
2017-10-31T22:36:43.434Z,9.60
2017-10-31T22:39:11.751Z,9.23
2017-10-31T22:41:39.306Z,10.40
2017-10-31T22:44:06.864Z,9.17
2017-10-31T22:46:34.443Z,8.77
2017-10-31T22:49:01.999Z,7.53
2017-10-31T22:51:29.559Z,10.03
2017-10-31T22:53:57.909Z,8.60
2017-10-31T22:56:26.249Z,9.30
2017-10-31T22:58:54.589Z,9.77
2017-10-31T23:01:22.131Z,8.90
2017-10-31T23:03:49.819Z,9.80
2017-10-31T23:06:17.380Z,9.80
2017-10-31T23:08:44.940Z,10.17
2017-10-31T23:11:12.505Z,8.50
2017-10-31T23:13:40.059Z,8.13
2017-10-31T23:16:07.613Z,10.60
2017-10-31T23:18:35.169Z,10.27
2017-10-31T23:21:02.728Z,8.80
2017-10-31T23:23:30.282Z,8.20
2017-10-31T23:25:57.817Z,7.40
2017-10-31T23:28:25.522Z,8.33
2017-10-31T23:30:53.064Z,8.70
2017-10-31T23:33:20.600Z,8.30
2017-10-31T23:35:48.170Z,7.90
2017-10-31T23:38:16.349Z,8.63
2017-10-31T23:40:43.905Z,9.07
2017-10-31T23:43:12.206Z,8.43
2017-10-31T23:45:39.915Z,8.30
2017-10-31T23:48:07.515Z,8.20
2017-10-31T23:50:35.183Z,8.40
2017-10-31T23:53:02.741Z,8.90
2017-10-31T23:55:31.122Z,8.13
2017-10-31T23:57:58.778Z,9.50
